createdAt,value
2023-04-13T00:00:32.274Z,85.08
2023-04-13T00:03:35.740Z,85.22
2023-04-13T00:06:39.014Z,84.69
2023-04-13T00:09:41.691Z,83.64
2023-04-13T00:12:47.632Z,83.47
2023-04-13T00:15:53.684Z,83.65
2023-04-13T00:18:56.408Z,83.83
2023-04-13T00:22:00.145Z,83.14
2023-04-13T00:25:02.764Z,83.09
2023-04-13T00:28:06.399Z,80.20
2023-04-13T00:31:10.730Z,80.75
2023-04-13T00:34:13.555Z,79.12
2023-04-13T00:37:16.211Z,78.50
2023-04-13T00:40:19.402Z,79.25
2023-04-13T00:43:22.033Z,78.68
2023-04-13T00:46:26.498Z,80.13
2023-04-13T00:49:30.688Z,79.94
2023-04-13T00:52:38.145Z,78.22
2023-04-13T00:55:42.702Z,78.78
2023-04-13T00:58:45.813Z,78.40
2023-04-13T01:01:56.435Z,78.67
2023-04-13T01:04:59.662Z,77.32
2023-04-13T01:08:09.653Z,76.78
2023-04-13T01:11:18.682Z,74.51
2023-04-13T01:14:30.827Z,74.11
2023-04-13T01:17:37.826Z,74.01
2023-04-13T01:20:45.214Z,75.15
2023-04-13T01:23:57.203Z,74.52
2023-04-13T01:27:11.608Z,74.43
2023-04-13T01:30:19.397Z,75.41
2023-04-13T01:33:25.293Z,76.32
2023-04-13T01:36:28.006Z,76.74
2023-04-13T01:39:32.162Z,76.70
2023-04-13T01:42:35.279Z,77.46
2023-04-13T01:45:47.465Z,76.76
2023-04-13T01:48:53.366Z,77.50
2023-04-13T01:51:58.760Z,77.11
2023-04-13T01:55:01.869Z,77.42
2023-04-13T01:58:05.792Z,78.57
2023-04-13T02:01:10.881Z,80.27
2023-04-13T02:04:13.932Z,81.17
2023-04-13T02:07:17.568Z,81.68
2023-04-13T02:10:20.831Z,82.57
2023-04-13T02:13:23.574Z,82.74
2023-04-13T02:16:28.386Z,83.09
2023-04-13T02:19:31.598Z,82.80
2023-04-13T02:22:34.219Z,82.06
2023-04-13T02:25:37.447Z,80.04
2023-04-13T02:28:41.662Z,81.49
2023-04-13T02:31:46.063Z,80.88
2023-04-13T02:34:48.864Z,80.65
2023-04-13T02:37:51.451Z,80.26
2023-04-13T02:40:55.778Z,79.74
2023-04-13T02:43:58.675Z,79.10
2023-04-13T02:47:02.922Z,79.29
2023-04-13T02:50:06.775Z,78.12
2023-04-13T02:53:09.405Z,79.27
2023-04-13T02:56:12.098Z,79.09
2023-04-13T02:59:16.574Z,79.83
2023-04-13T03:02:20.819Z,80.29
2023-04-13T03:05:29.131Z,79.74
2023-04-13T03:08:32.907Z,78.32
2023-04-13T03:11:36.309Z,80.66
2023-04-13T03:14:39.452Z,80.68
2023-04-13T03:17:44.152Z,79.53
2023-04-13T03:20:47.297Z,79.73
2023-04-13T03:23:50.188Z,80.66
2023-04-13T03:26:55.186Z,80.64
2023-04-13T03:29:57.876Z,79.80
2023-04-13T03:33:02.442Z,80.20
2023-04-13T03:36:06.226Z,76.83
2023-04-13T03:39:10.892Z,77.56
2023-04-13T03:42:13.768Z,78.57
2023-04-13T03:45:16.892Z,78.99
2023-04-13T03:48:21.297Z,77.46
2023-04-13T03:51:24.326Z,77.13
2023-04-13T03:54:27.110Z,78.34
2023-04-13T03:57:30.855Z,78.88
2023-04-13T04:00:33.592Z,79.05
2023-04-13T04:03:38.719Z,78.59
2023-04-13T04:06:41.531Z,78.36
2023-04-13T04:09:44.271Z,78.88
2023-04-13T04:12:47.077Z,78.65
2023-04-13T04:15:50.410Z,78.71
2023-04-13T04:18:54.622Z,79.24
2023-04-13T04:21:57.936Z,77.66
2023-04-13T04:25:01.881Z,77.14
2023-04-13T04:28:06.324Z,74.93
2023-04-13T04:31:10.965Z,75.58
2023-04-13T04:34:16.877Z,77.12
2023-04-13T04:37:22.000Z,76.45
2023-04-13T04:40:25.836Z,74.69
2023-04-13T04:43:30.368Z,73.56
2023-04-13T04:46:33.085Z,73.88
2023-04-13T04:49:37.579Z,74.53
2023-04-13T04:52:40.762Z,74.33
2023-04-13T04:55:44.285Z,74.40
2023-04-13T04:58:47.433Z,73.48
2023-04-13T05:01:50.824Z,73.64
2023-04-13T05:04:56.041Z,73.72
2023-04-13T05:07:58.884Z,73.01
2023-04-13T05:11:01.543Z,73.32
2023-04-13T05:14:04.776Z,73.42
2023-04-13T05:17:07.684Z,72.40
2023-04-13T05:20:13.620Z,71.64
2023-04-13T05:23:16.476Z,71.99
2023-04-13T05:26:20.459Z,71.93
2023-04-13T05:29:23.344Z,70.70
2023-04-13T05:32:26.105Z,71.04
2023-04-13T05:35:30.352Z,70.47
2023-04-13T05:38:33.190Z,70.15
2023-04-13T05:41:35.935Z,71.22
2023-04-13T05:44:38.767Z,70.10
2023-04-13T05:47:41.685Z,69.97
2023-04-13T05:50:45.939Z,69.45
2023-04-13T05:53:48.677Z,68.61
2023-04-13T05:56:51.502Z,69.09
2023-04-13T05:59:54.372Z,69.62
2023-04-13T06:02:59.434Z,68.19
2023-04-13T06:06:04.719Z,67.39
2023-04-13T06:09:08.790Z,68.08
2023-04-13T06:12:12.356Z,68.99
2023-04-13T06:15:15.533Z,70.49
2023-04-13T06:18:18.410Z,70.95
2023-04-13T06:21:22.682Z,69.74
2023-04-13T06:24:25.522Z,70.21
2023-04-13T06:27:28.387Z,68.80
2023-04-13T06:30:31.518Z,68.24
2023-04-13T06:33:34.220Z,67.00
2023-04-13T06:36:40.596Z,66.83
2023-04-13T06:39:43.555Z,68.03
2023-04-13T06:42:46.649Z,66.53
2023-04-13T06:45:49.679Z,65.08
2023-04-13T06:48:52.475Z,64.37
2023-04-13T06:51:56.953Z,65.40
2023-04-13T06:54:59.692Z,64.31
2023-04-13T06:58:02.588Z,64.35
2023-04-13T07:01:06.773Z,62.63
2023-04-13T07:04:10.014Z,63.07
2023-04-13T07:07:14.171Z,63.37
2023-04-13T07:10:17.031Z,63.49
2023-04-13T07:13:19.892Z,63.73
2023-04-13T07:16:22.733Z,63.38
2023-04-13T07:19:26.138Z,63.58
2023-04-13T07:22:35.128Z,64.03
2023-04-13T07:25:38.028Z,63.63
2023-04-13T07:28:41.614Z,62.85
2023-04-13T07:31:44.618Z,62.79
2023-04-13T07:34:47.519Z,62.55
2023-04-13T07:37:53.081Z,62.51
2023-04-13T07:40:56.480Z,61.67
2023-04-13T07:43:59.187Z,62.33
2023-04-13T07:47:02.320Z,62.50
2023-04-13T07:50:07.062Z,64.08
2023-04-13T07:53:11.587Z,62.03
2023-04-13T07:56:14.660Z,62.52
2023-04-13T07:59:17.510Z,61.70
2023-04-13T08:02:21.700Z,61.57
2023-04-13T08:05:24.943Z,60.93
2023-04-13T08:08:29.443Z,61.16
2023-04-13T08:11:32.857Z,63.18
2023-04-13T08:14:36.356Z,62.48
2023-04-13T08:17:39.739Z,62.16
2023-04-13T08:20:42.529Z,61.64
2023-04-13T08:23:46.853Z,61.95
2023-04-13T08:26:49.785Z,62.26
2023-04-13T08:29:56.707Z,60.16
2023-04-13T08:32:59.552Z,61.43
2023-04-13T08:36:02.438Z,62.44
2023-04-13T08:39:09.683Z,62.34
2023-04-13T08:42:13.047Z,61.41
2023-04-13T08:45:16.708Z,60.92
2023-04-13T08:48:19.530Z,60.32
2023-04-13T08:51:23.821Z,60.78
2023-04-13T08:54:29.196Z,60.53
2023-04-13T08:57:32.448Z,60.76
2023-04-13T09:00:37.294Z,60.69
2023-04-13T09:03:49.998Z,60.47
2023-04-13T09:06:53.286Z,61.70
2023-04-13T09:09:59.107Z,59.90
2023-04-13T09:13:01.981Z,61.40
2023-04-13T09:16:05.480Z,61.32
2023-04-13T09:19:09.590Z,60.31
2023-04-13T09:22:15.524Z,58.56
2023-04-13T09:25:25.083Z,58.15
2023-04-13T09:28:27.943Z,58.97
2023-04-13T09:31:34.700Z,59.34
2023-04-13T09:34:37.618Z,57.44
2023-04-13T09:37:41.746Z,56.82
2023-04-13T09:40:54.429Z,54.88
2023-04-13T09:43:57.708Z,55.07
2023-04-13T09:47:02.282Z,53.29
2023-04-13T09:50:05.917Z,55.52
2023-04-13T09:53:10.639Z,54.96
2023-04-13T09:56:14.990Z,55.88
2023-04-13T09:59:19.579Z,54.46
2023-04-13T10:02:23.547Z,56.13
2023-04-13T10:05:28.913Z,55.97
2023-04-13T10:08:38.292Z,55.42
2023-04-13T10:11:47.552Z,55.35
2023-04-13T10:14:55.325Z,54.03
2023-04-13T10:18:08.147Z,55.70
2023-04-13T10:21:11.829Z,54.80
2023-04-13T10:24:15.191Z,56.24
2023-04-13T10:27:20.654Z,58.47
2023-04-13T10:30:24.792Z,58.16
2023-04-13T10:33:31.403Z,55.72
2023-04-13T10:36:43.127Z,57.34
2023-04-13T10:39:46.045Z,59.74
2023-04-13T10:42:53.165Z,56.86
2023-04-13T10:46:07.002Z,58.07
2023-04-13T10:49:09.868Z,55.54
2023-04-13T10:52:12.875Z,55.79
2023-04-13T10:55:19.109Z,56.24
2023-04-13T10:58:23.256Z,55.71
2023-04-13T11:01:26.735Z,55.47
2023-04-13T11:04:32.187Z,54.67
2023-04-13T11:07:35.371Z,56.26
2023-04-13T11:10:38.343Z,58.50
2023-04-13T11:13:48.353Z,60.80
2023-04-13T11:16:51.359Z,59.35
2023-04-13T11:19:55.853Z,61.19
2023-04-13T11:22:58.901Z,62.92
2023-04-13T11:26:02.938Z,63.95
2023-04-13T11:29:07.081Z,65.90
2023-04-13T11:32:18.575Z,67.89
2023-04-13T11:35:23.323Z,68.78
2023-04-13T11:38:26.238Z,71.01
2023-04-13T11:41:32.376Z,71.70
2023-04-13T11:44:37.682Z,68.87
2023-04-13T11:47:41.327Z,66.26
2023-04-13T11:50:46.398Z,66.09
2023-04-13T11:53:51.350Z,60.38
2023-04-13T11:56:55.682Z,63.86
2023-04-13T11:59:59.939Z,65.55
2023-04-13T12:03:11.806Z,67.51
2023-04-13T12:06:26.046Z,67.80
2023-04-13T12:09:54.739Z,67.46
2023-04-13T12:13:16.948Z,65.54
2023-04-13T12:19:41.058Z,66.92
2023-04-13T12:22:54.929Z,68.87
2023-04-13T12:26:31.419Z,69.43
2023-04-13T12:29:28.614Z,69.56
2023-04-13T12:32:33.413Z,69.69
2023-04-13T12:35:37.140Z,69.66
2023-04-13T12:38:40.071Z,69.08
2023-04-13T12:41:42.765Z,69.83
2023-04-13T12:44:45.687Z,70.00
2023-04-13T12:47:50.001Z,69.59
2023-04-13T12:50:53.196Z,69.97
2023-04-13T12:53:56.095Z,70.66
2023-04-13T12:56:59.833Z,70.33
2023-04-13T13:00:05.369Z,68.78
2023-04-13T13:03:14.615Z,68.11
2023-04-13T13:06:17.797Z,62.63
2023-04-13T13:09:20.694Z,63.71
2023-04-13T13:12:23.820Z,60.41
2023-04-13T13:15:26.756Z,58.11
2023-04-13T13:18:46.683Z,57.31
2023-04-13T13:21:52.983Z,55.91
2023-04-13T13:24:57.001Z,56.71
2023-04-13T13:28:13.146Z,53.21
2023-04-13T13:31:17.153Z,52.65
2023-04-13T13:34:21.307Z,52.42
2023-04-13T13:37:24.196Z,53.71
2023-04-13T13:40:27.231Z,51.42
2023-04-13T13:43:30.086Z,50.05
2023-04-13T13:46:33.432Z,51.52
2023-04-13T13:49:37.827Z,51.92
2023-04-13T13:52:51.662Z,51.94
2023-04-13T13:56:04.265Z,52.11
2023-04-13T13:59:07.004Z,52.72
2023-04-13T14:02:10.491Z,53.12
2023-04-13T14:05:14.811Z,51.89
2023-04-13T14:08:17.681Z,52.23
2023-04-13T14:11:20.484Z,51.04
2023-04-13T14:14:23.297Z,50.63
2023-04-13T14:17:26.063Z,51.63
2023-04-13T14:20:30.990Z,53.39
2023-04-13T14:23:34.159Z,53.78
2023-04-13T14:26:38.287Z,54.36
2023-04-13T14:29:40.970Z,53.02
2023-04-13T14:32:43.711Z,53.09
2023-04-13T14:35:48.197Z,52.32
2023-04-13T14:38:52.554Z,53.45
2023-04-13T14:41:56.786Z,55.68
2023-04-13T14:44:59.997Z,55.42
2023-04-13T14:48:02.941Z,54.68
2023-04-13T14:51:07.521Z,59.58
2023-04-13T14:54:10.223Z,60.11
2023-04-13T14:57:13.265Z,62.23
2023-04-13T15:00:21.509Z,63.29
2023-04-13T15:03:24.528Z,64.66
2023-04-13T15:06:28.928Z,66.44
2023-04-13T15:09:31.730Z,70.25
2023-04-13T15:12:34.666Z,70.22
2023-04-13T15:15:38.808Z,73.38
2023-04-13T15:18:41.619Z,75.71
2023-04-13T15:21:45.874Z,78.02
2023-04-13T15:24:48.699Z,79.09
2023-04-13T15:27:53.117Z,79.94
2023-04-13T15:30:55.880Z,79.93
2023-04-13T15:33:58.678Z,80.69
2023-04-13T15:37:02.855Z,80.90
2023-04-13T15:40:07.618Z,81.78
2023-04-13T15:43:10.728Z,82.42
2023-04-13T15:46:13.491Z,82.40
2023-04-13T15:49:16.271Z,83.62
2023-04-13T15:52:20.255Z,83.02
2023-04-13T15:55:23.205Z,82.91
2023-04-13T15:58:25.954Z,82.12
2023-04-13T16:01:28.689Z,80.96
2023-04-13T16:04:32.283Z,81.01
2023-04-13T16:07:36.821Z,79.95
2023-04-13T16:10:39.595Z,79.17
2023-04-13T16:13:49.575Z,78.03
2023-04-13T16:16:53.732Z,77.94
2023-04-13T16:19:56.481Z,77.85
2023-04-13T16:23:03.808Z,78.09
2023-04-13T16:26:07.754Z,78.15
2023-04-13T16:29:10.618Z,79.26
2023-04-13T16:32:13.322Z,79.85
2023-04-13T16:35:16.935Z,80.66
2023-04-13T16:38:21.111Z,81.15
2023-04-13T16:41:23.809Z,81.34
2023-04-13T16:44:26.632Z,82.00
2023-04-13T16:47:29.512Z,82.18
2023-04-13T16:50:32.749Z,81.57
2023-04-13T16:53:37.144Z,82.33
2023-04-13T16:56:40.018Z,84.30
2023-04-13T16:59:42.849Z,85.04
2023-04-13T17:02:45.794Z,83.73
2023-04-13T17:05:48.646Z,82.80
2023-04-13T17:08:52.846Z,82.27
2023-04-13T17:11:56.005Z,81.82
2023-04-13T17:15:00.824Z,81.38
2023-04-13T17:18:03.701Z,81.81
2023-04-13T17:21:07.430Z,81.23
2023-04-13T17:24:11.900Z,81.53
2023-04-13T17:27:14.773Z,80.79
2023-04-13T17:30:17.999Z,80.79
2023-04-13T17:33:20.776Z,81.91
2023-04-13T17:36:23.616Z,82.61
2023-04-13T17:39:29.301Z,83.47
2023-04-13T17:42:32.094Z,83.22
2023-04-13T17:45:34.980Z,82.73
2023-04-13T17:48:38.010Z,83.12
2023-04-13T17:51:40.932Z,83.43
2023-04-13T17:54:45.058Z,83.73
2023-04-13T17:57:47.961Z,83.85
2023-04-13T18:00:51.493Z,84.01
2023-04-13T18:03:54.470Z,84.21
2023-04-13T18:06:57.648Z,84.24
2023-04-13T18:10:01.994Z,83.99
2023-04-13T18:13:05.051Z,83.91
2023-04-13T18:16:11.760Z,84.59
2023-04-13T18:19:16.542Z,84.61
2023-04-13T18:22:19.252Z,84.44
2023-04-13T18:25:23.313Z,83.92
2023-04-13T18:28:26.178Z,83.13
2023-04-13T18:31:28.992Z,83.90
2023-04-13T18:34:34.376Z,83.94
2023-04-13T18:37:38.655Z,83.22
2023-04-13T18:40:43.318Z,83.70
2023-04-13T18:43:46.133Z,83.99
2023-04-13T18:46:49.333Z,84.49
2023-04-13T18:49:52.406Z,84.70
2023-04-13T18:52:55.265Z,84.28
2023-04-13T18:55:59.995Z,83.95
2023-04-13T18:59:02.891Z,83.82
2023-04-13T19:02:05.791Z,83.01
2023-04-13T19:05:12.819Z,82.91
2023-04-13T19:08:16.933Z,83.52
2023-04-13T19:11:27.231Z,84.06
2023-04-13T19:14:30.261Z,83.95
2023-04-13T19:17:34.253Z,84.48
2023-04-13T19:20:37.098Z,84.50
2023-04-13T19:23:40.785Z,83.71
2023-04-13T19:26:45.140Z,82.76
2023-04-13T19:29:47.905Z,83.27
2023-04-13T19:32:51.161Z,82.45
2023-04-13T19:35:53.955Z,82.97
2023-04-13T19:38:56.671Z,83.12
2023-04-13T19:42:00.806Z,82.98
2023-04-13T19:45:03.720Z,83.72
2023-04-13T19:48:06.725Z,83.84
2023-04-13T19:51:09.582Z,83.44
2023-04-13T19:54:12.525Z,83.80
2023-04-13T19:57:16.817Z,84.72
2023-04-13T20:00:20.456Z,85.50
2023-04-13T20:03:23.785Z,85.94
2023-04-13T20:06:27.160Z,85.80
2023-04-13T20:09:30.811Z,86.06
2023-04-13T20:12:34.906Z,86.22
2023-04-13T20:15:39.640Z,86.13
2023-04-13T20:18:43.979Z,84.25
2023-04-13T20:21:48.256Z,83.68
2023-04-13T20:24:51.859Z,84.21
2023-04-13T20:27:56.838Z,85.17
2023-04-13T20:31:00.584Z,85.17
2023-04-13T20:34:04.488Z,85.02
2023-04-13T20:37:10.019Z,85.18
2023-04-13T20:40:14.017Z,86.40
2023-04-13T20:43:20.486Z,86.29
2023-04-13T20:46:25.415Z,87.05
2023-04-13T20:49:31.848Z,87.50
2023-04-13T20:52:35.421Z,88.29
2023-04-13T20:55:39.470Z,88.05
2023-04-13T20:58:43.811Z,87.83
2023-04-13T21:01:48.954Z,88.13
2023-04-13T21:04:54.008Z,88.74
2023-04-13T21:07:57.279Z,88.79
2023-04-13T21:11:00.593Z,88.60
2023-04-13T21:14:05.042Z,89.32
2023-04-13T21:17:08.213Z,89.50
2023-04-13T21:20:12.715Z,89.42
2023-04-13T21:23:15.847Z,89.19
2023-04-13T21:26:19.159Z,89.44
2023-04-13T21:29:23.684Z,89.34
2023-04-13T21:32:26.707Z,89.35
2023-04-13T21:35:30.036Z,89.34
2023-04-13T21:38:33.456Z,88.65
2023-04-13T21:41:36.433Z,88.29
2023-04-13T21:44:40.920Z,88.53
2023-04-13T21:47:44.046Z,88.70
2023-04-13T21:50:48.045Z,89.10
2023-04-13T21:53:52.628Z,89.30
2023-04-13T21:56:55.453Z,89.53
2023-04-13T22:00:00.258Z,89.79
2023-04-13T22:03:03.648Z,90.12
2023-04-13T22:06:09.125Z,90.59
2023-04-13T22:09:12.668Z,89.94
2023-04-13T22:12:16.747Z,90.63
2023-04-13T22:15:21.197Z,90.45
2023-04-13T22:18:24.582Z,89.82
2023-04-13T22:21:28.045Z,90.21
2023-04-13T22:24:31.083Z,89.93
2023-04-13T22:27:33.941Z,89.87
2023-04-13T22:30:38.205Z,89.95
2023-04-13T22:33:41.186Z,90.45
2023-04-13T22:36:44.158Z,90.50
2023-04-13T22:39:47.049Z,90.14
2023-04-13T22:42:49.997Z,90.03
2023-04-13T22:46:03.357Z,90.06
2023-04-13T22:49:06.477Z,90.16
2023-04-13T22:52:09.187Z,89.96
2023-04-13T22:55:12.387Z,89.48
2023-04-13T22:58:15.242Z,89.80
2023-04-13T23:01:19.445Z,89.49
2023-04-13T23:04:22.716Z,88.79
2023-04-13T23:07:25.569Z,88.42
2023-04-13T23:10:30.396Z,87.60
2023-04-13T23:13:33.113Z,88.20
2023-04-13T23:16:37.348Z,87.77
2023-04-13T23:19:40.281Z,87.83
2023-04-13T23:22:43.257Z,88.07
2023-04-13T23:25:49.906Z,87.57
2023-04-13T23:28:52.713Z,87.93
2023-04-13T23:31:57.768Z,87.86
2023-04-13T23:35:00.936Z,87.89
2023-04-13T23:38:03.769Z,87.16
2023-04-13T23:41:06.926Z,87.12
2023-04-13T23:44:09.840Z,86.86
2023-04-13T23:47:14.078Z,87.23
2023-04-13T23:50:18.019Z,87.49
2023-04-13T23:53:20.799Z,87.56
2023-04-13T23:56:23.813Z,87.68
2023-04-13T23:59:26.547Z,87.46
